createdAt,value
2018-06-01T00:01:31.610Z,13.40
2018-06-01T00:04:03.514Z,13.83
2018-06-01T00:06:36.171Z,14.60
2018-06-01T00:09:08.056Z,15.70
2018-06-01T00:11:40.710Z,14.40
2018-06-01T00:14:12.910Z,15.70
2018-06-01T00:16:44.843Z,16.83
2018-06-01T00:19:16.758Z,16.47
2018-06-01T00:21:48.634Z,17.30
2018-06-01T00:24:20.534Z,18.87
2018-06-01T00:26:52.422Z,18.77
2018-06-01T00:29:24.332Z,17.90
2018-06-01T00:31:56.210Z,18.67
2018-06-01T00:34:28.115Z,18.63
2018-06-01T00:36:59.994Z,18.77
2018-06-01T00:39:32.229Z,19.87
2018-06-01T00:42:04.106Z,20.67
2018-06-01T00:44:36.023Z,20.03
2018-06-01T00:47:07.906Z,19.87
2018-06-01T00:49:39.806Z,19.77
2018-06-01T00:52:12.458Z,20.33
2018-06-01T00:54:56.297Z,17.03
2018-06-01T00:57:28.182Z,18.47
2018-06-01T01:00:00.078Z,20.03
2018-06-01T01:02:31.958Z,20.20
2018-06-01T01:05:04.629Z,20.53
2018-06-01T01:07:37.281Z,23.70
2018-06-01T01:10:09.170Z,24.47
2018-06-01T01:12:41.822Z,22.77
2018-06-01T01:15:13.714Z,20.67
2018-06-01T01:17:46.355Z,21.37
2018-06-01T01:20:18.250Z,20.10
2018-06-01T01:22:50.898Z,22.63
2018-06-01T01:25:22.795Z,18.93
2018-06-01T01:27:55.690Z,27.50
2018-06-01T01:30:27.595Z,25.40
2018-06-01T01:32:59.461Z,27.97
2018-06-01T01:35:31.676Z,26.93
2018-06-01T01:38:03.557Z,27.10
2018-06-01T01:40:35.466Z,26.47
2018-06-01T01:43:07.355Z,30.17
2018-06-01T01:45:39.248Z,29.27
2018-06-01T01:48:11.138Z,31.43
2018-06-01T01:50:43.043Z,30.13
2018-06-01T01:53:15.202Z,28.47
2018-06-01T01:55:47.114Z,25.83
2018-06-01T01:58:18.995Z,28.37
2018-06-01T02:00:50.902Z,26.33
2018-06-01T02:03:22.779Z,29.40
2018-06-01T02:05:54.702Z,30.93
2018-06-01T02:08:26.578Z,30.30
2018-06-01T02:10:58.470Z,30.77
2018-06-01T02:13:30.346Z,30.40
2018-06-01T02:16:02.254Z,29.60
2018-06-01T02:18:34.134Z,27.07
2018-06-01T02:21:06.270Z,31.03
2018-06-01T02:23:38.434Z,27.97
2018-06-01T02:26:10.346Z,30.47
2018-06-01T02:28:42.222Z,30.47
2018-06-01T02:31:14.122Z,31.03
2018-06-01T02:33:46.003Z,31.83
2018-06-01T02:36:17.905Z,31.70
2018-06-01T02:38:49.787Z,30.77
2018-06-01T02:41:22.442Z,33.67
2018-06-01T02:43:54.314Z,31.63
2018-06-01T02:46:26.982Z,33.10
2018-06-01T02:48:58.854Z,32.67
2018-06-01T02:51:31.526Z,34.00
2018-06-01T02:54:03.444Z,33.17
2018-06-01T02:56:36.070Z,32.53
2018-06-01T02:59:07.947Z,31.37
2018-06-01T03:01:40.682Z,31.10
2018-06-01T03:04:12.563Z,32.17
2018-06-01T03:06:56.434Z,29.47
2018-06-01T03:09:28.323Z,29.13
2018-06-01T03:12:00.215Z,31.43
2018-06-01T03:14:32.086Z,31.33
2018-06-01T03:17:04.022Z,31.93
2018-06-01T03:19:35.923Z,32.13
2018-06-01T03:22:08.597Z,29.43
2018-06-01T03:24:40.470Z,30.43
2018-06-01T03:27:12.643Z,31.17
2018-06-01T03:29:44.534Z,31.67
2018-06-01T03:32:16.430Z,30.87
2018-06-01T03:34:48.313Z,30.30
2018-06-01T03:37:20.990Z,28.37
2018-06-01T03:39:53.630Z,29.73
2018-06-01T03:42:25.526Z,28.67
2018-06-01T03:44:58.174Z,25.73
2018-06-01T03:47:30.077Z,17.23
2018-06-01T03:50:01.959Z,14.97
2018-06-01T03:52:33.850Z,15.73
2018-06-01T03:55:05.723Z,15.03
2018-06-01T03:57:37.635Z,18.73
2018-06-01T04:00:09.538Z,20.13
2018-06-01T04:02:41.452Z,21.67
2018-06-01T04:05:13.334Z,23.27
2018-06-01T04:07:45.227Z,25.63
2018-06-01T04:10:17.110Z,28.03
2018-06-01T04:12:49.780Z,31.37
2018-06-01T04:15:21.658Z,36.73
2018-06-01T04:17:54.335Z,55.50
2018-06-01T04:20:26.986Z,55.23
2018-06-01T04:22:58.890Z,68.23
2018-06-01T04:25:30.774Z,78.23
2018-06-01T04:28:02.687Z,65.27
2018-06-01T04:30:35.337Z,60.13
2018-06-01T04:33:07.547Z,51.90
2018-06-01T04:35:39.439Z,61.47
2018-06-01T04:38:11.680Z,59.83
2018-06-01T04:40:43.642Z,78.50
2018-06-01T04:43:15.539Z,55.63
2018-06-01T04:45:48.487Z,63.77
2018-06-01T04:48:20.390Z,67.13
2018-06-01T04:50:52.282Z,57.17
2018-06-01T04:53:24.963Z,51.83
2018-06-01T04:55:57.615Z,70.83
2018-06-01T04:58:29.541Z,50.87
2018-06-01T05:01:01.639Z,45.27
2018-06-01T05:03:33.858Z,53.07
2018-06-01T05:06:05.742Z,59.23
2018-06-01T05:08:37.644Z,31.37
2018-06-01T05:11:09.523Z,29.60
2018-06-01T05:13:42.203Z,26.37
2018-06-01T05:16:14.846Z,30.80
2018-06-01T05:18:47.506Z,33.90
2018-06-01T05:21:19.386Z,37.57
2018-06-01T05:23:51.294Z,32.43
2018-06-01T05:26:23.466Z,29.20
2018-06-01T05:28:55.362Z,25.47
2018-06-01T05:31:27.238Z,24.90
2018-06-01T05:33:59.138Z,29.37
2018-06-01T05:36:31.023Z,31.47
2018-06-01T05:39:02.930Z,41.77
2018-06-01T05:41:34.818Z,32.73
2018-06-01T05:44:07.478Z,34.40
2018-06-01T05:46:40.130Z,41.93
2018-06-01T05:49:12.349Z,48.10
2018-06-01T05:51:44.514Z,42.00
2018-06-01T05:54:16.437Z,52.30
2018-06-01T05:56:48.314Z,54.53
2018-06-01T05:59:20.994Z,58.13
2018-06-01T06:01:53.648Z,63.47
2018-06-01T06:04:25.582Z,56.87
2018-06-01T06:06:57.442Z,66.17
2018-06-01T06:09:29.346Z,70.40
2018-06-01T06:12:01.235Z,61.07
2018-06-01T06:14:33.154Z,70.27
2018-06-01T06:17:05.153Z,80.83
2018-06-01T06:19:37.822Z,80.83
2018-06-01T06:22:10.473Z,82.33
2018-06-01T06:24:42.397Z,75.50
2018-06-01T06:27:14.543Z,82.03
2018-06-01T06:29:46.489Z,80.60
2018-06-01T06:32:19.154Z,81.00
2018-06-01T06:34:51.058Z,87.87
2018-06-01T06:37:22.932Z,95.43
2018-06-01T06:39:55.069Z,79.63
2018-06-01T06:42:26.987Z,79.17
2018-06-01T06:44:58.882Z,77.10
2018-06-01T06:47:31.534Z,70.33
2018-06-01T06:50:03.442Z,63.83
2018-06-01T06:52:35.318Z,65.57
2018-06-01T06:55:07.279Z,60.37
2018-06-01T06:57:39.890Z,54.33
2018-06-01T07:00:11.810Z,50.80
2018-06-01T07:02:43.761Z,56.53
2018-06-01T07:05:15.604Z,47.07
2018-06-01T07:07:48.255Z,54.47
2018-06-01T07:10:20.148Z,46.43
2018-06-01T07:12:52.030Z,43.97
2018-06-01T07:15:23.927Z,42.13
2018-06-01T07:17:55.814Z,34.97
2018-06-01T07:20:28.483Z,36.13
2018-06-01T07:23:01.123Z,28.77
2018-06-01T07:25:33.018Z,30.52
2018-06-01T07:28:04.910Z,29.63
2018-06-01T07:30:37.080Z,26.33
2018-06-01T07:33:09.327Z,29.12
2018-06-01T07:35:41.983Z,27.55
2018-06-01T07:38:13.873Z,30.60
2018-06-01T07:40:46.800Z,29.08
2018-06-01T07:43:18.678Z,29.98
2018-06-01T07:45:50.569Z,33.00
2018-06-01T07:48:23.472Z,33.45
2018-06-01T07:50:55.381Z,34.72
2018-06-01T07:53:27.257Z,32.22
2018-06-01T07:55:59.151Z,34.10
2018-06-01T07:58:31.030Z,34.28
2018-06-01T08:01:02.926Z,28.50
2018-06-01T08:03:34.844Z,30.65
2018-06-01T08:06:07.491Z,31.95
2018-06-01T08:08:40.146Z,32.95
2018-06-01T08:11:12.055Z,31.83
2018-06-01T08:13:43.952Z,30.88
2018-06-01T08:16:15.879Z,29.80
2018-06-01T08:18:47.754Z,28.85
2018-06-01T08:21:19.654Z,28.30
2018-06-01T08:23:51.530Z,28.13
2018-06-01T08:26:24.195Z,25.80
2018-06-01T08:28:56.071Z,27.40
2018-06-01T08:31:28.736Z,28.23
2018-06-01T08:34:00.606Z,26.73
2018-06-01T08:36:34.239Z,30.83
2018-06-01T08:39:06.394Z,29.53
2018-06-01T08:41:38.293Z,30.90
2018-06-01T08:44:10.223Z,28.23
2018-06-01T08:46:42.154Z,31.10
2018-06-01T08:49:14.015Z,31.33
2018-06-01T08:51:45.922Z,31.80
2018-06-01T08:54:17.807Z,30.60
2018-06-01T08:56:49.707Z,30.83
2018-06-01T08:59:22.630Z,31.80
2018-06-01T09:01:54.546Z,31.47
2018-06-01T09:04:27.195Z,32.40
2018-06-01T09:06:59.087Z,33.97
2018-06-01T09:09:31.730Z,34.83
2018-06-01T09:12:03.635Z,34.57
2018-06-01T09:14:36.286Z,32.77
2018-06-01T09:17:08.201Z,32.33
2018-06-01T09:19:40.078Z,32.03
2018-06-01T09:22:12.040Z,36.43
2018-06-01T09:24:43.893Z,36.63
2018-06-01T09:27:15.790Z,39.90
2018-06-01T09:29:47.679Z,42.10
2018-06-01T09:32:20.336Z,40.20
2018-06-01T09:34:52.215Z,46.13
2018-06-01T09:37:24.878Z,42.90
2018-06-01T09:39:57.538Z,46.23
2018-06-01T09:42:29.450Z,45.37
2018-06-01T09:45:01.338Z,44.03
2018-06-01T09:47:33.235Z,43.80
2018-06-01T09:50:05.119Z,40.50
2018-06-01T09:52:37.007Z,40.50
2018-06-01T09:55:08.895Z,41.97
2018-06-01T09:57:40.807Z,43.10
2018-06-01T10:00:12.689Z,46.43
2018-06-01T10:02:44.600Z,41.53
2018-06-01T10:05:17.272Z,38.90
2018-06-01T10:07:49.191Z,36.87
2018-06-01T10:10:21.070Z,32.33
2018-06-01T10:12:52.969Z,39.47
2018-06-01T10:15:25.874Z,33.07
2018-06-01T10:17:57.785Z,32.83
2018-06-01T10:20:36.651Z,30.93
2018-06-01T10:23:08.561Z,29.43
2018-06-01T10:25:40.450Z,31.37
2018-06-01T10:28:12.355Z,33.83
2018-06-01T10:30:44.523Z,32.73
2018-06-01T10:33:16.429Z,32.83
2018-06-01T10:35:48.309Z,34.53
2018-06-01T10:38:21.335Z,32.40
2018-06-01T10:40:53.483Z,28.53
2018-06-01T10:43:25.370Z,26.13
2018-06-01T10:45:57.257Z,24.03
2018-06-01T10:48:29.462Z,19.77
2018-06-01T10:51:01.354Z,18.60
2018-06-01T10:53:33.248Z,18.63
2018-06-01T10:56:05.132Z,19.33
2018-06-01T10:58:37.782Z,16.80
2018-06-01T11:01:09.662Z,14.60
2018-06-01T11:03:42.402Z,10.10
2018-06-01T11:06:14.281Z,7.80
2018-06-01T11:08:46.166Z,7.00
2018-06-01T11:11:18.798Z,7.53
2018-06-01T11:13:50.704Z,7.03
2018-06-01T11:16:23.342Z,5.50
2018-06-01T11:18:55.230Z,5.00
2018-06-01T11:21:27.150Z,4.87
2018-06-01T11:23:59.851Z,5.10
2018-06-01T11:26:31.726Z,5.83
2018-06-01T11:29:04.231Z,6.13
2018-06-01T11:31:36.114Z,5.40
2018-06-01T11:34:08.103Z,5.07
2018-06-01T11:36:40.069Z,5.73
2018-06-01T11:39:11.950Z,5.40
2018-06-01T11:41:43.826Z,6.13
2018-06-01T11:44:16.493Z,6.27
2018-06-01T11:46:49.150Z,7.13
2018-06-01T11:49:21.047Z,6.60
2018-06-01T11:51:53.682Z,6.17
2018-06-01T11:54:25.574Z,6.60
2018-06-01T11:56:58.210Z,5.40
2018-06-01T11:59:30.110Z,5.53
2018-06-01T12:02:02.755Z,4.80
2018-06-01T12:04:34.974Z,4.87
2018-06-01T12:07:06.861Z,5.10
2018-06-01T12:09:39.523Z,4.83
2018-06-01T12:12:11.404Z,5.53
2018-06-01T12:14:43.320Z,6.03
2018-06-01T12:17:15.962Z,6.50
2018-06-01T12:19:47.858Z,5.23
2018-06-01T12:22:20.494Z,6.00
2018-06-01T12:24:52.386Z,5.53
2018-06-01T12:27:24.264Z,5.23
2018-06-01T12:29:56.925Z,3.97
2018-06-01T12:32:28.827Z,3.93
2018-06-01T12:35:00.730Z,4.47
2018-06-01T12:37:32.840Z,3.87
2018-06-01T12:40:04.746Z,3.53
2018-06-01T12:42:36.632Z,4.70
2018-06-01T12:45:08.515Z,3.80
2018-06-01T12:47:41.402Z,3.97
2018-06-01T12:50:13.307Z,3.50
2018-06-01T12:52:45.173Z,4.20
2018-06-01T12:55:17.081Z,4.30
2018-06-01T12:57:49.728Z,4.10
2018-06-01T13:00:21.622Z,3.53
2018-06-01T13:02:54.267Z,3.70
2018-06-01T13:05:26.149Z,3.53
2018-06-01T13:07:58.812Z,3.67
2018-06-01T13:10:30.722Z,4.00
2018-06-01T13:13:02.606Z,4.40
2018-06-01T13:15:34.502Z,4.77
2018-06-01T13:18:07.158Z,3.30
2018-06-01T13:20:39.088Z,4.43
2018-06-01T13:23:11.693Z,4.07
2018-06-01T13:25:43.591Z,4.27
2018-06-01T13:28:16.235Z,4.00
2018-06-01T13:30:48.138Z,4.20
2018-06-01T13:33:20.010Z,4.67
2018-06-01T13:35:51.939Z,3.80
2018-06-01T13:38:23.842Z,4.63
2018-06-01T13:40:55.751Z,4.60
2018-06-01T13:43:27.653Z,4.87
2018-06-01T13:45:59.591Z,4.50
2018-06-01T13:48:32.246Z,4.87
2018-06-01T13:51:04.138Z,5.00
2018-06-01T13:53:36.782Z,5.33
2018-06-01T13:56:08.690Z,4.93
2018-06-01T13:58:40.570Z,5.40
2018-06-01T14:01:12.474Z,5.30
2018-06-01T14:03:44.343Z,5.20
2018-06-01T14:06:17.019Z,5.57
2018-06-01T14:08:48.893Z,4.97
2018-06-01T14:11:21.541Z,5.47
2018-06-01T14:13:53.410Z,5.43
2018-06-01T14:16:25.611Z,5.73
2018-06-01T14:18:57.495Z,6.27
2018-06-01T14:21:29.399Z,6.83
2018-06-01T14:24:01.310Z,7.10
2018-06-01T14:26:33.213Z,7.13
2018-06-01T14:29:05.092Z,6.67
2018-06-01T14:31:37.754Z,6.57
2018-06-01T14:34:09.627Z,6.10
2018-06-01T14:36:42.299Z,5.70
2018-06-01T14:39:14.193Z,7.03
2018-06-01T14:41:46.094Z,6.37
2018-06-01T14:44:17.966Z,6.20
2018-06-01T14:46:49.876Z,6.07
2018-06-01T14:49:21.750Z,5.57
2018-06-01T14:51:54.032Z,5.80
2018-06-01T14:54:25.911Z,6.40
2018-06-01T14:56:57.811Z,7.23
2018-06-01T14:59:30.491Z,6.93
2018-06-01T15:02:03.479Z,8.17
2018-06-01T15:04:35.361Z,7.70
2018-06-01T15:07:07.510Z,8.17
2018-06-01T15:09:39.390Z,7.60
2018-06-01T15:12:11.293Z,7.97
2018-06-01T15:14:43.167Z,8.10
2018-06-01T15:17:15.828Z,9.37
2018-06-01T15:19:47.715Z,9.70
2018-06-01T15:22:20.463Z,10.50
2018-06-01T15:24:52.675Z,10.87
2018-06-01T15:27:24.582Z,10.43
2018-06-01T15:29:56.465Z,10.00
2018-06-01T15:32:28.362Z,10.20
2018-06-01T15:35:00.303Z,9.37
2018-06-01T15:37:33.058Z,9.13
2018-06-01T15:40:05.164Z,8.80
2018-06-01T15:42:37.208Z,9.20
2018-06-01T15:45:09.851Z,9.20
2018-06-01T15:47:41.773Z,10.60
2018-06-01T15:50:13.931Z,9.63
2018-06-01T15:52:45.838Z,8.40
2018-06-01T15:55:17.718Z,9.33
2018-06-01T15:57:49.607Z,8.40
2018-06-01T16:00:22.242Z,8.43
2018-06-01T16:02:55.267Z,7.27
2018-06-01T16:05:27.907Z,7.23
2018-06-01T16:07:59.863Z,6.60
2018-06-01T16:10:31.744Z,7.90
2018-06-01T16:13:03.654Z,7.80
2018-06-01T16:15:35.531Z,8.13
2018-06-01T16:18:07.511Z,6.87
2018-06-01T16:20:39.358Z,5.70
2018-06-01T16:23:12.010Z,6.13
2018-06-01T16:25:43.894Z,5.63
2018-06-01T16:28:15.782Z,5.83
2018-06-01T16:30:47.666Z,6.07
2018-06-01T16:33:20.337Z,5.93
2018-06-01T16:35:52.992Z,6.60
2018-06-01T16:38:24.891Z,5.87
2018-06-01T16:40:57.782Z,6.30
2018-06-01T16:43:29.674Z,6.20
2018-06-01T16:46:01.558Z,25.00
2018-06-01T16:48:33.457Z,10.20
2018-06-01T16:51:06.098Z,8.60
2018-06-01T16:53:38.310Z,6.97
2018-06-01T16:56:10.472Z,6.57
2018-06-01T16:58:42.371Z,8.20
2018-06-01T17:01:14.267Z,8.63
2018-06-01T17:03:46.190Z,8.07
2018-06-01T17:06:18.070Z,8.37
2018-06-01T17:08:49.975Z,9.43
2018-06-01T17:11:21.852Z,9.70
2018-06-01T17:13:53.763Z,9.40
2018-06-01T17:16:25.642Z,10.27
2018-06-01T17:18:58.318Z,10.90
2018-06-01T17:21:30.959Z,10.80
2018-06-01T17:24:02.863Z,11.83
2018-06-01T17:26:35.568Z,11.73
2018-06-01T17:29:07.470Z,12.00
2018-06-01T17:31:39.686Z,13.50
2018-06-01T17:34:11.582Z,18.53
2018-06-01T17:36:43.465Z,14.40
2018-06-01T17:39:15.379Z,16.77
2018-06-01T17:41:47.261Z,15.57
2018-06-01T17:44:19.229Z,15.60
2018-06-01T17:46:51.071Z,16.53
2018-06-01T17:49:22.966Z,18.33
2018-06-01T17:51:54.863Z,19.13
2018-06-01T17:54:27.978Z,19.80
2018-06-01T17:56:59.902Z,34.50
2018-06-01T17:59:32.590Z,21.27
2018-06-01T18:02:05.240Z,21.57
2018-06-01T18:04:37.150Z,24.73
2018-06-01T18:07:09.021Z,24.07
2018-06-01T18:09:40.925Z,24.33
2018-06-01T18:12:13.122Z,34.13
2018-06-01T18:14:45.018Z,32.60
2018-06-01T18:17:16.940Z,28.33
2018-06-01T18:19:49.603Z,27.57
2018-06-01T18:22:22.273Z,26.53
2018-06-01T18:24:54.167Z,27.67
2018-06-01T18:27:26.094Z,27.33
2018-06-01T18:29:57.990Z,26.97
2018-06-01T18:32:29.870Z,26.00
2018-06-01T18:35:01.782Z,26.83
2018-06-01T18:37:34.431Z,26.10
2018-06-01T18:40:06.348Z,26.50
2018-06-01T18:42:38.255Z,25.80
2018-06-01T18:45:10.168Z,25.40
2018-06-01T18:47:42.058Z,26.73
2018-06-01T18:50:13.970Z,36.20
2018-06-01T18:52:46.614Z,31.13
2018-06-01T18:55:18.835Z,25.63
2018-06-01T18:57:50.721Z,23.30
2018-06-01T19:00:22.633Z,23.60
2018-06-01T19:02:55.535Z,38.93
2018-06-01T19:05:27.431Z,35.47
2018-06-01T19:07:59.331Z,31.13
2018-06-01T19:10:31.242Z,47.23
2018-06-01T19:13:03.127Z,46.77
2018-06-01T19:15:35.030Z,27.07
2018-06-01T19:18:07.719Z,25.60
2018-06-01T19:20:39.610Z,22.57
2018-06-01T19:23:11.491Z,23.07
2018-06-01T19:25:43.390Z,23.50
2018-06-01T19:28:16.043Z,25.40
2018-06-01T19:30:47.945Z,25.80
2018-06-01T19:33:19.830Z,27.50
2018-06-01T19:35:51.770Z,27.97
2018-06-01T19:38:23.656Z,27.47
2018-06-01T19:40:55.550Z,28.63
2018-06-01T19:43:27.437Z,29.70
2018-06-01T19:46:00.111Z,28.27
2018-06-01T19:48:32.834Z,30.87
2018-06-01T19:51:04.762Z,31.60
2018-06-01T19:53:36.669Z,43.13
2018-06-01T19:56:08.583Z,40.10
2018-06-01T19:58:40.689Z,32.97
2018-06-01T20:01:13.524Z,41.53
2018-06-01T20:03:46.179Z,36.33
2018-06-01T20:06:18.082Z,37.30
2018-06-01T20:08:49.989Z,36.10
2018-06-01T20:11:21.905Z,35.87
2018-06-01T20:13:53.804Z,37.93
2018-06-01T20:16:26.462Z,37.00
2018-06-01T20:18:58.347Z,30.40
2018-06-01T20:21:30.255Z,35.80
2018-06-01T20:24:02.135Z,31.67
2018-06-01T20:26:34.047Z,34.23
2018-06-01T20:29:06.693Z,34.53
2018-06-01T20:31:38.617Z,33.43
2018-06-01T20:34:10.499Z,34.03
2018-06-01T20:36:42.394Z,34.03
2018-06-01T20:39:14.274Z,34.70
2018-06-01T20:41:46.955Z,34.93
2018-06-01T20:44:19.606Z,33.97
2018-06-01T20:46:51.536Z,34.80
2018-06-01T20:49:23.415Z,34.60
2018-06-01T20:51:55.326Z,35.47
2018-06-01T20:54:27.206Z,35.80
2018-06-01T20:56:59.111Z,38.40
2018-06-01T20:59:30.994Z,39.50
2018-06-01T21:02:03.662Z,36.97
2018-06-01T21:04:36.409Z,39.43
2018-06-01T21:07:08.298Z,36.07
2018-06-01T21:09:40.236Z,38.17
2018-06-01T21:12:12.091Z,39.23
2018-06-01T21:14:44.234Z,41.37
2018-06-01T21:17:16.385Z,37.50
2018-06-01T21:19:48.266Z,41.30
2018-06-01T21:22:20.166Z,38.43
2018-06-01T21:24:52.047Z,41.33
2018-06-01T21:27:24.718Z,41.37
2018-06-01T21:29:57.366Z,39.50
2018-06-01T21:32:30.127Z,40.07
2018-06-01T21:35:02.266Z,41.60
2018-06-01T21:37:34.172Z,43.73
2018-06-01T21:40:06.051Z,42.03
2018-06-01T21:42:37.964Z,39.27
2018-06-01T21:45:09.862Z,39.57
2018-06-01T21:47:41.773Z,43.87
2018-06-01T21:50:13.650Z,40.30
2018-06-01T21:52:45.559Z,36.87
2018-06-01T21:55:18.476Z,35.97
2018-06-01T21:57:50.382Z,36.47
2018-06-01T22:00:22.270Z,35.43
2018-06-01T22:02:57.189Z,37.10
2018-06-01T22:05:29.071Z,36.67
2018-06-01T22:08:01.738Z,38.37
2018-06-01T22:10:34.394Z,38.93
2018-06-01T22:13:06.356Z,39.43
2018-06-01T22:15:38.237Z,39.63
2018-06-01T22:18:10.984Z,39.30
2018-06-01T22:20:43.111Z,79.10
2018-06-01T22:23:15.263Z,49.83
2018-06-01T22:25:47.973Z,43.20
2018-06-01T22:28:19.886Z,41.27
2018-06-01T22:30:51.813Z,40.77
2018-06-01T22:33:23.903Z,40.73
2018-06-01T22:35:55.806Z,40.97
2018-06-01T22:38:27.704Z,40.60
2018-06-01T22:40:59.631Z,39.93
2018-06-01T22:43:31.529Z,41.63
2018-06-01T22:46:03.413Z,39.37
2018-06-01T22:48:35.623Z,39.30
2018-06-01T22:51:07.503Z,41.30
2018-06-01T22:53:39.410Z,49.27
2018-06-01T22:56:12.087Z,53.85
2018-06-01T22:58:43.990Z,42.93
2018-06-01T23:01:15.870Z,43.97
2018-06-01T23:03:47.798Z,41.97
2018-06-01T23:06:19.679Z,42.50
2018-06-01T23:08:51.618Z,43.53
2018-06-01T23:11:23.576Z,45.93
2018-06-01T23:13:55.496Z,43.63
2018-06-01T23:16:27.390Z,45.23
2018-06-01T23:18:59.577Z,46.53
2018-06-01T23:21:31.475Z,48.00
2018-06-01T23:24:03.400Z,46.40
2018-06-01T23:26:35.284Z,46.37
2018-06-01T23:29:07.203Z,48.97
2018-06-01T23:31:40.095Z,46.63
2018-06-01T23:34:12.002Z,49.73
2018-06-01T23:36:43.878Z,48.57
2018-06-01T23:39:15.793Z,48.97
2018-06-01T23:41:47.674Z,50.37
2018-06-01T23:44:22.618Z,47.53
2018-06-01T23:46:54.838Z,49.93
2018-06-01T23:49:27.007Z,54.07
2018-06-01T23:51:58.895Z,50.60
2018-06-01T23:54:30.820Z,52.83
2018-06-01T23:57:02.716Z,50.73
2018-06-01T23:59:34.854Z,53.30
